01:01
Airports
Links
Donate
Help keep this website running!
PayPal
Bitcoin
METAR
KBKF 222358Z COR 02023G34KT 7SM -RA BKN015 BKN030 OVC100 07/06 A3020 RMK AO2A RAE35B58 SLP207 P0001 60001 T00730055 10184 20073 53036 COR 0000
Current Weather Conditions at KBKF
MVFR 23:58:00 22-05-17
Automated station
Altimeter:30.20 hg
Temp:7.3°c 45°f
Dew point:5.5°c 41°f
Wind:23 knots, 26.5 mph, 12 m/s, from 20°
Visibility:7.0 statute miles
10000(OVC) Overcast
3000(BKN) Broken
1500(BKN) Broken
Past METAR reports
VFR 23:35:00 22-05-17
Automated station
Altimeter:30.16 hg
Temp:9.0°c 48°f
Dew point:7.0°c 45°f
Wind:20 knots, 23 mph, 10 m/s, from 30°
Visibility:10.0 statute miles
11000(OVC) Overcast
7000(BKN) Broken
4000(SCT) Scattered
2500(FEW) A few
KBKF 222335Z 03020G28KT 10SM FEW025 SCT040 BKN070 OVC110 09/07 A3016 RMK AO2A SLP193
VFR 22:58:00 22-05-17
Automated station
Altimeter:30.16 hg
Temp:9.9°c 48°f
Dew point:7.7°c 45°f
Wind:17 knots, 19.6 mph, 9 m/s, from 20°
Visibility:7.0 statute miles
7000(OVC) Overcast
4000(BKN) Broken
2500(FEW) A few
KBKF 222258Z 02017G31KT 7SM -RA FEW025 BKN040 OVC070 10/08 A3016 RMK AO2A RAB13 PRESRR SLP188 T00990077
VFR 22:13:00 22-05-17
Automated station
Altimeter:30.10 hg
Temp:16.0°c 61°f
Dew point:0.0°c 32°f
Wind:27 knots, 31.1 mph, 14 m/s, from 20°
Visibility:10.0 statute miles
20000(BKN) Broken
8500(BKN) Broken
5500(SCT) Scattered
KBKF 222213Z 02027G33KT 10SM -RA SCT055 BKN085 BKN200 16/00 A3010 RMK AO2A PRESRR SLP154
VFR 21:58:00 22-05-17
Automated station
Altimeter:30.07 hg
Temp:17.0°c 63°f
Dew point:-2.7°c 28°f
Wind:11 knots, 12.7 mph, 6 m/s, from 330°
Visibility:10.0 statute miles
20000(BKN) Broken
9000(BKN) Broken
6000(SCT) Scattered
KBKF 222158Z 33011KT 10SM SCT060 BKN090 BKN200 17/M03 A3007 RMK AO2A SLP140 T01701027
VFR 20:58:00 22-05-17
Automated station
Altimeter:30.08 hg
Temp:17.8°c 63°f
Dew point:-2.7°c 28°f
Wind:4 knots, 4.6 mph, 2 m/s, from 190°
Visibility:10.0 statute miles
22000(BKN) Broken
10000(BKN) Broken
7000(SCT) Scattered
KBKF 222058Z 19004KT 10SM SCT070 BKN100 BKN220 18/M03 A3008 RMK AO2A SLP140 T01781027 57025
VFR 19:58:00 22-05-17
Automated station
Altimeter:30.11 hg
Temp:16.7°c 61°f
Dew point:-1.7°c 30°f
Wind:5 knots, 5.8 mph, 3 m/s, from 340°
Visibility:10.0 statute miles
22000(BKN) Broken
10000(SCT) Scattered
7000(SCT) Scattered
KBKF 221958Z 34005G15KT 10SM SCT070 SCT100 BKN220 17/M02 A3011 RMK AO2A SLP154 T01671017
TAF
TAF AMD KBKF 230015Z 2300/2323 36025G35KT 9000 -SHRA VCTS BKN015CB 610154 530004 550406 QNH3010INS TEMPO 2300/2302 -TSRA BKN020CB BECMG 2302/2303 32012G20KT 9999 NSW BKN040 QNH3021INS BECMG 2305/2306 34009KT 9999 BKN060 QNH3022INS BECMG 2317/2318 01009KT 9999 SCT080 BKN100 QNH3013INS TX18/2323Z TN03/2312Z
Forecast at KBKF
00:00 23-05-17 to 02:00 23-05-17
-SHRA VCTS
Wind:25 Knots from 360°
Visibility:5.59 statute miles
1500BKN Broken
TEMPO 00:00 23-05-17 to 02:00 23-05-17
-TSRA
2000BKN Broken
BECMG 02:00 23-05-17 to 05:00 23-05-17
NSW
Wind:12 Knots from 320°
Visibility:6.21 statute miles
4000BKN Broken
BECMG 05:00 23-05-17 to 17:00 23-05-17
NSW
Wind:9 Knots from 340°
Visibility:6.21 statute miles
6000BKN Broken
BECMG 17:00 23-05-17 to 23:00 23-05-17
NSW
Wind:9 Knots from 10°
Visibility:6.21 statute miles
8000SCT Scattered
10000BKN Broken